sensor_id;sensor_type;location;lat;lon;timestamp;pressure;altitude;pressure_sealevel;temperature;humidity
3524;BME280;1776;53.330;11.498;2023-05-07T00:00:06;24117.72;;;-147.39;67.29
3524;BME280;1776;53.330;11.498;2023-05-07T00:02:34;24154.31;;;-147.39;67.63
3524;BME280;1776;53.330;11.498;2023-05-07T00:05:01;24150.25;;;-147.39;67.84
3524;BME280;1776;53.330;11.498;2023-05-07T00:07:27;24150.25;;;-147.39;67.23
3524;BME280;1776;53.330;11.498;2023-05-07T00:09:52;24148.22;;;-147.39;67.07
3524;BME280;1776;53.330;11.498;2023-05-07T00:12:18;24178.72;;;-147.39;66.78
3524;BME280;1776;53.330;11.498;2023-05-07T00:14:43;24270.22;;;-147.39;66.75
3524;BME280;1776;53.330;11.498;2023-05-07T00:17:08;24164.47;;;-147.39;66.99
3524;BME280;1776;53.330;11.498;2023-05-07T00:19:33;24162.44;;;-147.39;66.91
3524;BME280;1776;53.330;11.498;2023-05-07T00:21:59;24178.72;;;-147.39;66.84
3524;BME280;1776;53.330;11.498;2023-05-07T00:24:24;24194.97;;;-147.39;67.21
3524;BME280;1776;53.330;11.498;2023-05-07T00:26:49;24190.91;;;-147.39;67.02
3524;BME280;1776;53.330;11.498;2023-05-07T00:29:15;24162.44;;;-147.39;67.20
3524;BME280;1776;53.330;11.498;2023-05-07T00:31:40;24170.56;;;-147.39;67.42
3524;BME280;1776;53.330;11.498;2023-05-07T00:34:05;24142.09;;;-147.39;67.46
3524;BME280;1776;53.330;11.498;2023-05-07T00:36:31;24180.75;;;-147.39;67.52
3524;BME280;1776;53.330;11.498;2023-05-07T00:38:59;24178.72;;;-147.39;67.50
3524;BME280;1776;53.330;11.498;2023-05-07T00:41:25;24182.78;;;-147.39;67.79
3524;BME280;1776;53.330;11.498;2023-05-07T00:43:50;24144.13;;;-147.39;67.86
3524;BME280;1776;53.330;11.498;2023-05-07T00:46:17;24178.72;;;-147.39;67.81
3524;BME280;1776;53.330;11.498;2023-05-07T00:48:42;24213.28;;;-147.39;67.05
3524;BME280;1776;53.330;11.498;2023-05-07T00:51:09;24146.16;;;-147.39;67.43
3524;BME280;1776;53.330;11.498;2023-05-07T00:53:36;24164.47;;;-147.39;67.12
3524;BME280;1776;53.330;11.498;2023-05-07T00:56:01;24162.44;;;-147.39;67.62
3524;BME280;1776;53.330;11.498;2023-05-07T00:58:27;24160.41;;;-147.39;67.41
3524;BME280;1776;53.330;11.498;2023-05-07T01:00:52;24194.97;;;-147.39;67.67
3524;BME280;1776;53.330;11.498;2023-05-07T01:03:18;24182.78;;;-147.39;67.37
3524;BME280;1776;53.330;11.498;2023-05-07T01:05:44;24172.59;;;-147.39;67.08
3524;BME280;1776;53.330;11.498;2023-05-07T01:08:11;24170.56;;;-147.39;66.86
3524;BME280;1776;53.330;11.498;2023-05-07T01:10:36;24197.00;;;-147.39;66.73
3524;BME280;1776;53.330;11.498;2023-05-07T01:13:02;24190.91;;;-147.39;66.56
3524;BME280;1776;53.330;11.498;2023-05-07T01:15:28;24197.00;;;-147.39;66.39
3524;BME280;1776;53.330;11.498;2023-05-07T01:17:53;24221.41;;;-147.39;66.91
3524;BME280;1776;53.330;11.498;2023-05-07T01:20:19;24144.13;;;-147.39;66.96
3524;BME280;1776;53.330;11.498;2023-05-07T01:22:44;24174.63;;;-147.39;66.63
3524;BME280;1776;53.330;11.498;2023-05-07T01:25:10;24170.56;;;-147.39;67.32
3524;BME280;1776;53.330;11.498;2023-05-07T01:27:36;24168.53;;;-147.39;67.30
3524;BME280;1776;53.330;11.498;2023-05-07T01:30:05;24164.47;;;-147.39;67.42
3524;BME280;1776;53.330;11.498;2023-05-07T01:32:35;24121.78;;;-147.39;67.52
3524;BME280;1776;53.330;11.498;2023-05-07T01:35:05;24154.31;;;-147.39;67.57
3524;BME280;1776;53.330;11.498;2023-05-07T01:37:32;24170.56;;;-147.39;66.97
3524;BME280;1776;53.330;11.498;2023-05-07T01:39:58;24186.84;;;-147.39;67.39
3524;BME280;1776;53.330;11.498;2023-05-07T01:42:23;24164.47;;;-147.39;67.10
3524;BME280;1776;53.330;11.498;2023-05-07T01:44:49;24166.50;;;-147.39;67.22
3524;BME280;1776;53.330;11.498;2023-05-07T01:47:14;24160.41;;;-147.39;67.67
3524;BME280;1776;53.330;11.498;2023-05-07T01:49:40;24174.63;;;-147.39;67.10
3524;BME280;1776;53.330;11.498;2023-05-07T01:52:06;24180.75;;;-147.39;66.82
3524;BME280;1776;53.330;11.498;2023-05-07T01:54:31;24186.84;;;-147.39;67.24
3524;BME280;1776;53.330;11.498;2023-05-07T01:56:56;24188.88;;;-147.39;66.99
3524;BME280;1776;53.330;11.498;2023-05-07T01:59:22;24219.38;;;-147.39;67.46
3524;BME280;1776;53.330;11.498;2023-05-07T02:01:47;24209.19;;;-147.39;66.93
3524;BME280;1776;53.330;11.498;2023-05-07T02:04:12;24178.72;;;-147.39;67.00
3524;BME280;1776;53.330;11.498;2023-05-07T02:06:38;24164.47;;;-147.39;66.54
3524;BME280;1776;53.330;11.498;2023-05-07T02:09:04;24162.44;;;-147.39;66.95
3524;BME280;1776;53.330;11.498;2023-05-07T02:11:29;24166.50;;;-147.39;66.99
3524;BME280;1776;53.330;11.498;2023-05-07T02:13:55;24178.72;;;-147.39;66.75
3524;BME280;1776;53.330;11.498;2023-05-07T02:16:20;24201.06;;;-147.39;66.46
3524;BME280;1776;53.330;11.498;2023-05-07T02:18:46;24162.44;;;-147.39;66.58
3524;BME280;1776;53.330;11.498;2023-05-07T02:21:12;24194.97;;;-147.39;66.61
3524;BME280;1776;53.330;11.498;2023-05-07T02:23:37;24201.06;;;-147.39;66.99
3524;BME280;1776;53.330;11.498;2023-05-07T02:26:04;24207.16;;;-147.39;66.74
3524;BME280;1776;53.330;11.498;2023-05-07T02:28:29;24170.56;;;-147.39;66.46
3524;BME280;1776;53.330;11.498;2023-05-07T02:30:54;24182.78;;;-147.39;66.36
3524;BME280;1776;53.330;11.498;2023-05-07T02:33:20;24166.50;;;-147.39;66.74
3524;BME280;1776;53.330;11.498;2023-05-07T02:35:45;24164.47;;;-147.39;66.34
3524;BME280;1776;53.330;11.498;2023-05-07T02:38:11;24201.06;;;-147.39;66.74
3524;BME280;1776;53.330;11.498;2023-05-07T02:40:36;24221.41;;;-147.39;66.56
3524;BME280;1776;53.330;11.498;2023-05-07T02:43:04;24168.53;;;-147.39;66.94
3524;BME280;1776;53.330;11.498;2023-05-07T02:45:30;24184.81;;;-147.39;66.91
3524;BME280;1776;53.330;11.498;2023-05-07T02:47:55;24221.41;;;-147.39;66.50
3524;BME280;1776;53.330;11.498;2023-05-07T02:50:21;24207.16;;;-147.39;67.13
3524;BME280;1776;53.330;11.498;2023-05-07T02:52:46;24156.34;;;-147.39;67.12
3524;BME280;1776;53.330;11.498;2023-05-07T02:55:12;24192.94;;;-147.39;67.20
3524;BME280;1776;53.330;11.498;2023-05-07T02:57:38;24131.94;;;-147.39;67.65
3524;BME280;1776;53.330;11.498;2023-05-07T03:00:13;24337.31;;;-147.39;67.44
3524;BME280;1776;53.330;11.498;2023-05-07T03:02:39;24162.44;;;-147.39;67.52
3524;BME280;1776;53.330;11.498;2023-05-07T03:05:05;24162.44;;;-147.39;66.96
3524;BME280;1776;53.330;11.498;2023-05-07T03:07:30;24160.41;;;-147.39;66.49
3524;BME280;1776;53.330;11.498;2023-05-07T03:09:55;24184.81;;;-147.39;66.76
3524;BME280;1776;53.330;11.498;2023-05-07T03:12:21;24190.91;;;-147.39;66.84
3524;BME280;1776;53.330;11.498;2023-05-07T03:14:46;24207.16;;;-147.39;66.69
3524;BME280;1776;53.330;11.498;2023-05-07T03:17:11;24158.38;;;-147.39;66.43
3524;BME280;1776;53.330;11.498;2023-05-07T03:19:37;24168.53;;;-147.39;66.31
3524;BME280;1776;53.330;11.498;2023-05-07T03:22:02;24129.91;;;-147.39;66.70
3524;BME280;1776;53.330;11.498;2023-05-07T03:24:27;24160.41;;;-147.39;66.64
3524;BME280;1776;53.330;11.498;2023-05-07T03:26:52;24131.94;;;-147.39;66.84
3524;BME280;1776;53.330;11.498;2023-05-07T03:29:18;24168.53;;;-147.39;66.74
3524;BME280;1776;53.330;11.498;2023-05-07T03:31:43;24160.41;;;-147.39;66.65
3524;BME280;1776;53.330;11.498;2023-05-07T03:34:08;24178.72;;;-147.39;66.70
3524;BME280;1776;53.330;11.498;2023-05-07T03:36:34;24211.25;;;-147.39;66.37
3524;BME280;1776;53.330;11.498;2023-05-07T03:38:59;24205.13;;;-147.39;66.49
3524;BME280;1776;53.330;11.498;2023-05-07T03:41:24;24217.34;;;-147.39;66.78
3524;BME280;1776;53.330;11.498;2023-05-07T03:43:50;24209.19;;;-147.39;66.76
3524;BME280;1776;53.330;11.498;2023-05-07T03:46:15;24199.03;;;-147.39;66.93
3524;BME280;1776;53.330;11.498;2023-05-07T03:48:41;24172.59;;;-147.39;66.98
3524;BME280;1776;53.330;11.498;2023-05-07T03:51:06;24292.56;;;-147.39;67.50
3524;BME280;1776;53.330;11.498;2023-05-07T03:53:31;24174.63;;;-147.39;67.11
3524;BME280;1776;53.330;11.498;2023-05-07T03:55:57;24166.50;;;-147.39;67.52
3524;BME280;1776;53.330;11.498;2023-05-07T03:58:22;24182.78;;;-147.39;67.01
3524;BME280;1776;53.330;11.498;2023-05-07T04:00:47;24219.38;;;-147.39;67.04
3524;BME280;1776;53.330;11.498;2023-05-07T04:03:13;24199.03;;;-147.39;66.70
3524;BME280;1776;53.330;11.498;2023-05-07T04:05:39;24207.16;;;-147.39;66.57
3524;BME280;1776;53.330;11.498;2023-05-07T04:08:04;24190.91;;;-147.39;66.85
3524;BME280;1776;53.330;11.498;2023-05-07T04:10:30;24203.09;;;-147.39;66.84
3524;BME280;1776;53.330;11.498;2023-05-07T04:12:55;24174.63;;;-147.39;66.53
3524;BME280;1776;53.330;11.498;2023-05-07T04:15:22;24164.47;;;-147.39;66.65
3524;BME280;1776;53.330;11.498;2023-05-07T04:17:47;24201.06;;;-147.39;66.34
3524;BME280;1776;53.330;11.498;2023-05-07T04:20:15;24197.00;;;-147.39;66.46
3524;BME280;1776;53.330;11.498;2023-05-07T04:22:41;24158.38;;;-147.39;66.76
3524;BME280;1776;53.330;11.498;2023-05-07T04:25:07;24221.41;;;-147.39;65.95
3524;BME280;1776;53.330;11.498;2023-05-07T04:27:34;24192.94;;;-147.39;65.68
3524;BME280;1776;53.330;11.498;2023-05-07T04:29:59;24176.66;;;-147.39;66.96
3524;BME280;1776;53.330;11.498;2023-05-07T04:32:26;24140.06;;;-147.39;67.71
3524;BME280;1776;53.330;11.498;2023-05-07T04:34:51;24154.31;;;-147.39;67.31
3524;BME280;1776;53.330;11.498;2023-05-07T04:37:16;24166.50;;;-147.39;67.66
3524;BME280;1776;53.330;11.498;2023-05-07T04:39:42;24211.25;;;-147.39;67.24
3524;BME280;1776;53.330;11.498;2023-05-07T04:42:07;24138.03;;;-147.39;67.25
3524;BME280;1776;53.330;11.498;2023-05-07T04:44:34;24164.47;;;-147.39;67.21
3524;BME280;1776;53.330;11.498;2023-05-07T04:46:59;24154.31;;;-147.39;67.33
3524;BME280;1776;53.330;11.498;2023-05-07T04:49:25;24142.09;;;-147.39;66.98
3524;BME280;1776;53.330;11.498;2023-05-07T04:51:50;24136.00;;;-147.39;66.66
3524;BME280;1776;53.330;11.498;2023-05-07T04:54:15;24152.28;;;-147.39;67.11
3524;BME280;1776;53.330;11.498;2023-05-07T04:56:41;24170.56;;;-147.39;66.76
3524;BME280;1776;53.330;11.498;2023-05-07T04:59:06;24184.81;;;-147.39;66.61
3524;BME280;1776;53.330;11.498;2023-05-07T05:01:31;24174.63;;;-147.39;66.19
3524;BME280;1776;53.330;11.498;2023-05-07T05:03:57;24201.06;;;-147.39;66.10
3524;BME280;1776;53.330;11.498;2023-05-07T05:06:22;24199.03;;;-147.39;65.87
3524;BME280;1776;53.330;11.498;2023-05-07T05:08:47;24186.84;;;-147.39;66.18
3524;BME280;1776;53.330;11.498;2023-05-07T05:11:13;24209.19;;;-147.39;66.53
3524;BME280;1776;53.330;11.498;2023-05-07T05:13:38;24168.53;;;-147.39;66.27
3524;BME280;1776;53.330;11.498;2023-05-07T05:16:03;24158.38;;;-147.39;66.22
3524;BME280;1776;53.330;11.498;2023-05-07T05:18:29;24192.94;;;-147.39;66.00
3524;BME280;1776;53.330;11.498;2023-05-07T05:20:54;24213.28;;;-147.39;65.57
3524;BME280;1776;53.330;11.498;2023-05-07T05:23:19;24127.88;;;-147.39;65.41
3524;BME280;1776;53.330;11.498;2023-05-07T05:25:45;24270.22;;;-147.39;65.69
3524;BME280;1776;53.330;11.498;2023-05-07T05:28:10;24227.50;;;-147.39;65.40
3524;BME280;1776;53.330;11.498;2023-05-07T05:30:35;24231.56;;;-147.39;65.90
3524;BME280;1776;53.330;11.498;2023-05-07T05:33:01;24194.97;;;-147.39;66.78
3524;BME280;1776;53.330;11.498;2023-05-07T05:35:26;24164.47;;;-147.39;66.53
3524;BME280;1776;53.330;11.498;2023-05-07T05:37:51;24209.19;;;-147.39;66.08
3524;BME280;1776;53.330;11.498;2023-05-07T05:40:17;24245.81;;;-147.39;65.56
3524;BME280;1776;53.330;11.498;2023-05-07T05:42:42;24225.47;;;-147.39;65.23
3524;BME280;1776;53.330;11.498;2023-05-07T05:45:08;24199.03;;;-147.39;65.36
3524;BME280;1776;53.330;11.498;2023-05-07T05:47:33;24215.31;;;-147.39;65.28
3524;BME280;1776;53.330;11.498;2023-05-07T05:49:59;24217.34;;;-147.39;65.42
3524;BME280;1776;53.330;11.498;2023-05-07T05:52:24;24264.09;;;-147.39;65.42
3524;BME280;1776;53.330;11.498;2023-05-07T05:54:50;24205.13;;;-147.39;65.35
3524;BME280;1776;53.330;11.498;2023-05-07T05:57:15;24251.91;;;-147.39;65.71
3524;BME280;1776;53.330;11.498;2023-05-07T05:59:40;24237.66;;;-147.39;65.43
3524;BME280;1776;53.330;11.498;2023-05-07T06:02:06;24223.44;;;-147.39;65.33
3524;BME280;1776;53.330;11.498;2023-05-07T06:04:32;24219.38;;;-147.39;65.18
3524;BME280;1776;53.330;11.498;2023-05-07T06:06:57;24262.06;;;-147.39;65.23
3524;BME280;1776;53.330;11.498;2023-05-07T06:09:22;24241.75;;;-147.39;65.34
3524;BME280;1776;53.330;11.498;2023-05-07T06:11:47;24199.03;;;-147.39;65.62
3524;BME280;1776;53.330;11.498;2023-05-07T06:14:13;24243.78;;;-147.39;65.00
3524;BME280;1776;53.330;11.498;2023-05-07T06:16:38;24221.41;;;-147.39;65.58
3524;BME280;1776;53.330;11.498;2023-05-07T06:19:03;24219.38;;;-147.39;65.96
3524;BME280;1776;53.330;11.498;2023-05-07T06:21:28;24207.16;;;-147.39;65.33
3524;BME280;1776;53.330;11.498;2023-05-07T06:23:54;24188.88;;;-147.39;65.46
3524;BME280;1776;53.330;11.498;2023-05-07T06:26:20;24239.72;;;-147.39;65.69
3524;BME280;1776;53.330;11.498;2023-05-07T06:28:45;24209.19;;;-147.39;66.37
3524;BME280;1776;53.330;11.498;2023-05-07T06:31:20;24203.09;;;-147.39;66.18
3524;BME280;1776;53.330;11.498;2023-05-07T06:33:45;24221.41;;;-147.39;66.33
3524;BME280;1776;53.330;11.498;2023-05-07T06:36:11;24186.84;;;-147.39;66.08
3524;BME280;1776;53.330;11.498;2023-05-07T06:38:36;24235.63;;;-147.39;65.66
3524;BME280;1776;53.330;11.498;2023-05-07T06:41:01;24225.47;;;-147.39;65.11
3524;BME280;1776;53.330;11.498;2023-05-07T06:43:27;24231.56;;;-147.39;65.19
3524;BME280;1776;53.330;11.498;2023-05-07T06:45:52;24229.53;;;-147.39;65.00
3524;BME280;1776;53.330;11.498;2023-05-07T06:48:17;24213.28;;;-147.39;65.53
3524;BME280;1776;53.330;11.498;2023-05-07T06:50:42;24225.47;;;-147.39;65.58
3524;BME280;1776;53.330;11.498;2023-05-07T06:53:08;24233.59;;;-147.39;64.82
3524;BME280;1776;53.330;11.498;2023-05-07T06:55:33;24235.63;;;-147.39;64.35
3524;BME280;1776;53.330;11.498;2023-05-07T06:57:58;24241.75;;;-147.39;64.56
3524;BME280;1776;53.330;11.498;2023-05-07T07:00:26;24231.56;;;-147.39;65.34
3524;BME280;1776;53.330;11.498;2023-05-07T07:02:53;24249.88;;;-147.39;65.41
3524;BME280;1776;53.330;11.498;2023-05-07T07:05:18;24247.84;;;-147.39;65.29
3524;BME280;1776;53.330;11.498;2023-05-07T07:07:44;24239.72;;;-147.39;65.09
3524;BME280;1776;53.330;11.498;2023-05-07T07:10:09;24292.56;;;-147.39;64.49
3524;BME280;1776;53.330;11.498;2023-05-07T07:12:34;24262.06;;;-147.39;64.52
3524;BME280;1776;53.330;11.498;2023-05-07T07:15:00;24335.28;;;-147.39;64.08
3524;BME280;1776;53.330;11.498;2023-05-07T07:17:25;24323.06;;;-147.39;63.60
3524;BME280;1776;53.330;11.498;2023-05-07T07:19:50;24296.63;;;-147.39;63.40
3524;BME280;1776;53.330;11.498;2023-05-07T07:22:16;24331.22;;;-147.39;63.48
3524;BME280;1776;53.330;11.498;2023-05-07T07:24:41;24331.22;;;-147.39;63.10
3524;BME280;1776;53.330;11.498;2023-05-07T07:27:06;24327.13;;;-147.39;63.07
3524;BME280;1776;53.330;11.498;2023-05-07T07:29:32;24382.03;;;-147.39;62.71
3524;BME280;1776;53.330;11.498;2023-05-07T07:31:57;24382.03;;;-147.39;62.58
3524;BME280;1776;53.330;11.498;2023-05-07T07:34:22;24343.41;;;-147.39;62.29
3524;BME280;1776;53.330;11.498;2023-05-07T07:36:47;24371.88;;;-147.39;61.91
3524;BME280;1776;53.330;11.498;2023-05-07T07:39:13;24394.25;;;-147.39;61.83
3524;BME280;1776;53.330;11.498;2023-05-07T07:41:38;24420.69;;;-147.39;62.06
3524;BME280;1776;53.330;11.498;2023-05-07T07:44:04;24400.34;;;-147.39;61.59
3524;BME280;1776;53.330;11.498;2023-05-07T07:46:32;24461.34;;;-147.39;60.90
3524;BME280;1776;53.330;11.498;2023-05-07T07:48:57;24504.06;;;-147.39;60.98
3524;BME280;1776;53.330;11.498;2023-05-07T07:51:24;24422.72;;;-147.39;61.15
3524;BME280;1776;53.330;11.498;2023-05-07T07:53:50;24471.50;;;-147.39;61.07
3524;BME280;1776;53.330;11.498;2023-05-07T07:56:15;24530.47;;;-147.39;60.65
3524;BME280;1776;53.330;11.498;2023-05-07T07:58:40;24514.22;;;-147.39;60.20
3524;BME280;1776;53.330;11.498;2023-05-07T08:01:05;24471.50;;;-147.39;60.33
3524;BME280;1776;53.330;11.498;2023-05-07T08:03:31;24491.84;;;-147.39;60.83
3524;BME280;1776;53.330;11.498;2023-05-07T08:05:57;24571.16;;;-147.39;59.68
3524;BME280;1776;53.330;11.498;2023-05-07T08:08:22;24544.72;;;-147.39;59.40
3524;BME280;1776;53.330;11.498;2023-05-07T08:10:48;24536.59;;;-147.39;59.48
3524;BME280;1776;53.330;11.498;2023-05-07T08:13:15;24558.94;;;-147.39;58.94
3524;BME280;1776;53.330;11.498;2023-05-07T08:15:40;24589.47;;;-147.39;58.95
3524;BME280;1776;53.330;11.498;2023-05-07T08:18:06;24632.16;;;-147.39;58.38
3524;BME280;1776;53.330;11.498;2023-05-07T08:20:31;24644.34;;;-147.39;57.56
3524;BME280;1776;53.330;11.498;2023-05-07T08:22:56;24603.69;;;-147.39;57.52
3524;BME280;1776;53.330;11.498;2023-05-07T08:25:22;24670.78;;;-147.39;57.41
3524;BME280;1776;53.330;11.498;2023-05-07T08:27:47;24685.03;;;-147.39;56.90
3524;BME280;1776;53.330;11.498;2023-05-07T08:30:13;24715.53;;;-147.39;56.63
3524;BME280;1776;53.330;11.498;2023-05-07T08:32:38;24731.81;;;-147.39;56.74
3524;BME280;1776;53.330;11.498;2023-05-07T08:35:04;24731.81;;;-147.39;56.67
3524;BME280;1776;53.330;11.498;2023-05-07T08:37:29;24776.53;;;-147.39;56.13
3524;BME280;1776;53.330;11.498;2023-05-07T08:39:54;24772.47;;;-147.39;55.85
3524;BME280;1776;53.330;11.498;2023-05-07T08:42:20;24825.34;;;-147.39;55.57
3524;BME280;1776;53.330;11.498;2023-05-07T08:44:48;24833.50;;;-147.39;55.20
3524;BME280;1776;53.330;11.498;2023-05-07T08:47:18;24861.97;;;-147.39;54.88
3524;BME280;1776;53.330;11.498;2023-05-07T08:49:44;24851.78;;;-147.39;54.74
3524;BME280;1776;53.330;11.498;2023-05-07T08:52:11;24821.28;;;-147.39;54.57
3524;BME280;1776;53.330;11.498;2023-05-07T08:54:37;24888.41;;;-147.39;54.15
3524;BME280;1776;53.330;11.498;2023-05-07T08:57:03;24900.59;;;-147.39;53.52
3524;BME280;1776;53.330;11.498;2023-05-07T08:59:28;24914.84;;;-147.39;53.74
3524;BME280;1776;53.330;11.498;2023-05-07T09:01:53;24957.53;;;-147.39;54.01
3524;BME280;1776;53.330;11.498;2023-05-07T09:04:19;24967.72;;;-147.39;53.05
3524;BME280;1776;53.330;11.498;2023-05-07T09:06:44;24973.81;;;-147.39;53.00
3524;BME280;1776;53.330;11.498;2023-05-07T09:09:09;24994.16;;;-147.39;52.67
3524;BME280;1776;53.330;11.498;2023-05-07T09:11:39;25000.25;;;-147.39;52.35
3524;BME280;1776;53.330;11.498;2023-05-07T09:14:04;25040.94;;;-147.39;52.23
3524;BME280;1776;53.330;11.498;2023-05-07T09:16:30;25042.97;;;-147.39;51.58
3524;BME280;1776;53.330;11.498;2023-05-07T09:18:58;25093.81;;;-147.39;51.50
3524;BME280;1776;53.330;11.498;2023-05-07T09:21:23;25071.44;;;-147.39;51.39
3524;BME280;1776;53.330;11.498;2023-05-07T09:23:52;25148.72;;;-147.39;51.37
3524;BME280;1776;53.330;11.498;2023-05-07T09:26:19;25130.41;;;-147.39;51.22
3524;BME280;1776;53.330;11.498;2023-05-07T09:28:45;25160.91;;;-147.39;50.79
3524;BME280;1776;53.330;11.498;2023-05-07T09:31:12;25211.75;;;-147.39;50.44
3524;BME280;1776;53.330;11.498;2023-05-07T09:33:38;25272.78;;;-147.39;49.69
3524;BME280;1776;53.330;11.498;2023-05-07T09:36:08;25240.25;;;-147.39;49.75
3524;BME280;1776;53.330;11.498;2023-05-07T09:38:34;25211.75;;;-147.39;49.86
3524;BME280;1776;53.330;11.498;2023-05-07T09:41:05;25183.28;;;-147.39;50.32
3524;BME280;1776;53.330;11.498;2023-05-07T09:43:35;25260.56;;;-147.39;50.30
3524;BME280;1776;53.330;11.498;2023-05-07T09:46:07;25219.91;;;-147.39;49.66
3524;BME280;1776;53.330;11.498;2023-05-07T09:48:37;25221.94;;;-147.39;50.28
3524;BME280;1776;53.330;11.498;2023-05-07T09:51:21;25254.47;;;-147.39;49.52
3524;BME280;1776;53.330;11.498;2023-05-07T09:53:48;25211.75;;;-147.39;50.19
3524;BME280;1776;53.330;11.498;2023-05-07T09:56:14;25203.63;;;-147.39;50.31
3524;BME280;1776;53.330;11.498;2023-05-07T09:58:41;25217.88;;;-147.39;50.67
3524;BME280;1776;53.330;11.498;2023-05-07T10:01:07;25219.91;;;-147.39;50.40
3524;BME280;1776;53.330;11.498;2023-05-07T10:03:33;25262.59;;;-147.39;50.21
3524;BME280;1776;53.330;11.498;2023-05-07T10:06:00;25232.09;;;-147.39;49.94
3524;BME280;1776;53.330;11.498;2023-05-07T10:08:26;25258.53;;;-147.39;49.91
3524;BME280;1776;53.330;11.498;2023-05-07T10:10:51;25274.81;;;-147.39;50.04
3524;BME280;1776;53.330;11.498;2023-05-07T10:13:18;25266.69;;;-147.39;49.74
3524;BME280;1776;53.330;11.498;2023-05-07T10:15:44;25274.81;;;-147.39;49.56
3524;BME280;1776;53.330;11.498;2023-05-07T10:18:10;25335.84;;;-147.39;48.85
3524;BME280;1776;53.330;11.498;2023-05-07T10:20:37;25333.78;;;-147.39;48.85
3524;BME280;1776;53.330;11.498;2023-05-07T10:23:04;25374.47;;;-147.39;48.21
3524;BME280;1776;53.330;11.498;2023-05-07T10:25:32;25421.25;;;-147.39;48.42
3524;BME280;1776;53.330;11.498;2023-05-07T10:28:01;25364.31;;;-147.39;48.53
3524;BME280;1776;53.330;11.498;2023-05-07T10:33:12;25394.81;;;-147.39;48.23
3524;BME280;1776;53.330;11.498;2023-05-07T10:35:44;25409.06;;;-147.39;48.18
3524;BME280;1776;53.330;11.498;2023-05-07T10:38:10;25378.53;;;-147.39;47.84
3524;BME280;1776;53.330;11.498;2023-05-07T10:40:36;25388.72;;;-147.39;47.95
3524;BME280;1776;53.330;11.498;2023-05-07T10:43:03;25390.75;;;-147.39;48.64
3524;BME280;1776;53.330;11.498;2023-05-07T10:45:30;25366.34;;;-147.39;48.51
3524;BME280;1776;53.330;11.498;2023-05-07T10:48:15;25413.13;;;-147.39;47.81
3524;BME280;1776;53.330;11.498;2023-05-07T10:50:44;25484.31;;;-147.39;48.14
3524;BME280;1776;53.330;11.498;2023-05-07T10:55:51;25463.97;;;-147.39;47.65
3524;BME280;1776;53.330;11.498;2023-05-07T10:58:28;25512.78;;;-147.39;47.20
3524;BME280;1776;53.330;11.498;2023-05-07T11:01:00;25520.91;;;-147.39;46.25
3524;BME280;1776;53.330;11.498;2023-05-07T11:03:26;25551.44;;;-147.39;45.93
3524;BME280;1776;53.330;11.498;2023-05-07T11:06:11;25573.81;;;-147.39;46.05
3524;BME280;1776;53.330;11.498;2023-05-07T11:11:16;25608.38;;;-147.39;44.84
3524;BME280;1776;53.330;11.498;2023-05-07T11:16:22;25551.44;;;-147.39;45.78
3524;BME280;1776;53.330;11.498;2023-05-07T11:18:49;25602.28;;;-147.39;45.35
3524;BME280;1776;53.330;11.498;2023-05-07T11:21:38;25722.28;;;-147.39;45.73
3524;BME280;1776;53.330;11.498;2023-05-07T11:24:06;25586.00;;;-147.39;46.07
3524;BME280;1776;53.330;11.498;2023-05-07T11:26:48;25207.69;;;-147.39;45.45
3524;BME280;1776;53.330;11.498;2023-05-07T11:29:19;25661.28;;;-147.39;45.05
3524;BME280;1776;53.330;11.498;2023-05-07T11:31:48;25720.25;;;-147.39;45.02
3524;BME280;1776;53.330;11.498;2023-05-07T11:34:15;25767.03;;;-147.39;44.19
3524;BME280;1776;53.330;11.498;2023-05-07T11:36:46;25832.13;;;-147.39;43.20
3524;BME280;1776;53.330;11.498;2023-05-07T11:39:32;25931.81;;;-147.39;43.20
3524;BME280;1776;53.330;11.498;2023-05-07T11:42:01;25846.38;;;-147.39;42.72
3524;BME280;1776;53.330;11.498;2023-05-07T11:44:41;25927.75;;;-147.39;41.62
3524;BME280;1776;53.330;11.498;2023-05-07T11:47:07;25911.47;;;-147.39;41.97
3524;BME280;1776;53.330;11.498;2023-05-07T11:49:33;25960.28;;;-147.39;42.08
3524;BME280;1776;53.330;11.498;2023-05-07T11:51:59;25946.06;;;-147.39;42.05
3524;BME280;1776;53.330;11.498;2023-05-07T11:54:24;26005.03;;;-147.39;41.97
3524;BME280;1776;53.330;11.498;2023-05-07T11:56:50;26053.88;;;-147.39;41.08
3524;BME280;1776;53.330;11.498;2023-05-07T11:59:18;26129.13;;;-147.39;40.92
3524;BME280;1776;53.330;11.498;2023-05-07T12:01:47;26210.50;;;-147.39;40.69
3524;BME280;1776;53.330;11.498;2023-05-07T12:04:12;26271.53;;;-147.39;40.39
3524;BME280;1776;53.330;11.498;2023-05-07T12:06:38;26304.09;;;-147.39;39.62
3524;BME280;1776;53.330;11.498;2023-05-07T12:09:04;26324.44;;;-147.39;39.93
3524;BME280;1776;53.330;11.498;2023-05-07T12:11:32;26344.78;;;-147.39;38.66
3524;BME280;1776;53.330;11.498;2023-05-07T12:13:57;26336.66;;;-147.39;39.40
3524;BME280;1776;53.330;11.498;2023-05-07T12:16:23;26271.53;;;-147.39;39.23
3524;BME280;1776;53.330;11.498;2023-05-07T12:18:48;26279.69;;;-147.39;39.92
3524;BME280;1776;53.330;11.498;2023-05-07T12:21:13;26267.47;;;-147.39;39.86
3524;BME280;1776;53.330;11.498;2023-05-07T12:23:40;26230.84;;;-147.39;39.88
3524;BME280;1776;53.330;11.498;2023-05-07T12:26:05;26182.03;;;-147.39;40.15
3524;BME280;1776;53.330;11.498;2023-05-07T12:28:31;26192.19;;;-147.39;40.32
3524;BME280;1776;53.330;11.498;2023-05-07T12:31:01;26182.03;;;-147.39;40.83
3524;BME280;1776;53.330;11.498;2023-05-07T12:33:27;26167.78;;;-147.39;40.27
3524;BME280;1776;53.330;11.498;2023-05-07T12:35:55;26204.41;;;-147.39;41.91
3524;BME280;1776;53.330;11.498;2023-05-07T12:38:21;26204.41;;;-147.39;40.16
3524;BME280;1776;53.330;11.498;2023-05-07T12:40:48;26239.00;;;-147.39;40.52
3524;BME280;1776;53.330;11.498;2023-05-07T12:43:20;26293.91;;;-147.39;40.57
3524;BME280;1776;53.330;11.498;2023-05-07T12:45:49;26287.81;;;-147.39;40.22
3524;BME280;1776;53.330;11.498;2023-05-07T12:48:15;26326.47;;;-147.39;38.65
3524;BME280;1776;53.330;11.498;2023-05-07T12:50:41;26318.34;;;-147.39;38.77
3524;BME280;1776;53.330;11.498;2023-05-07T12:53:07;26365.13;;;-147.39;39.60
3524;BME280;1776;53.330;11.498;2023-05-07T12:55:44;26340.72;;;-147.39;38.40